Time;durP1;ratioP1;P1;durP2;ratioP2;P2;SDS_P1;SDS_P2;PMS_P1;PMS_P2;Temp;Humidity;BMP_temperature;BMP_pressure;BME280_temperature;BME280_humidity;BME280_pressure;Samples;Min_cycle;Max_cycle;Signal;HPM_P1;HPM_P2
2021/10/05 00:01:01;;;;;;;11.57;5.80;;;;;;;;;;4921427;29;20338;-80
2021/10/05 00:03:30;;;;;;;11.17;6.10;;;;;;;;;;4913907;29;20212;-81
2021/10/05 00:05:57;;;;;;;15.93;6.30;;;;;;;;;;4913371;29;20897;-80
2021/10/05 00:08:24;;;;;;;10.70;6.07;;;;;;;;;;4924807;29;20250;-81
2021/10/05 00:10:51;;;;;;;16.27;6.67;;;;;;;;;;4929792;29;20313;-80
2021/10/05 00:13:18;;;;;;;12.03;6.30;;;;;;;;;;4920887;29;20651;-80
2021/10/05 00:15:46;;;;;;;13.53;6.03;;;;;;;;;;4925643;29;20268;-79
2021/10/05 00:18:13;;;;;;;10.87;6.03;;;;;;;;;;4928084;29;20215;-80
2021/10/05 00:20:41;;;;;;;9.20;5.87;;;;;;;;;;4934579;29;20725;-78
2021/10/05 00:23:09;;;;;;;10.93;5.90;;;;;;;;;;4927620;29;20251;-80
2021/10/05 00:25:37;;;;;;;11.47;5.53;;;;;;;;;;4933179;29;20231;-78
2021/10/05 00:28:06;;;;;;;13.47;7.90;;;;;;;;;;4926837;29;20698;-78
2021/10/05 00:30:33;;;;;;;9.40;5.53;;;;;;;;;;4931005;29;20230;-80
2021/10/05 00:33:00;;;;;;;10.20;6.53;;;;;;;;;;4930872;29;20294;-80
2021/10/05 00:35:28;;;;;;;14.67;6.30;;;;;;;;;;4932725;29;20738;-79
2021/10/05 00:38:03;;;;;;;11.73;5.87;;;;;;;;;;4936534;29;20203;-80
2021/10/05 00:40:30;;;;;;;13.60;5.93;;;;;;;;;;4937145;29;20298;-79
2021/10/05 00:42:57;;;;;;;15.37;5.93;;;;;;;;;;4932183;29;20851;-80
2021/10/05 00:45:24;;;;;;;13.23;6.20;;;;;;;;;;4933641;29;20729;-79
2021/10/05 00:47:52;;;;;;;9.30;5.47;;;;;;;;;;4934944;29;20338;-80
2021/10/05 00:50:19;;;;;;;9.67;5.87;;;;;;;;;;4937767;29;20670;-79
2021/10/05 00:52:47;;;;;;;12.27;6.10;;;;;;;;;;4940360;29;20240;-78
2021/10/05 00:55:16;;;;;;;10.57;5.87;;;;;;;;;;4938860;29;20215;-79
2021/10/05 00:57:43;;;;;;;17.13;6.60;;;;;;;;;;4933419;29;20249;-80
2021/10/05 01:00:11;;;;;;;9.90;6.20;;;;;;;;;;4932657;29;20266;-80
2021/10/05 01:02:39;;;;;;;8.80;5.77;;;;;;;;;;4933422;29;20754;-81
2021/10/05 01:05:07;;;;;;;14.47;6.60;;;;;;;;;;4933500;29;20221;-81
2021/10/05 01:07:34;;;;;;;9.40;6.10;;;;;;;;;;4933412;29;20224;-80
2021/10/05 01:10:02;;;;;;;9.57;5.70;;;;;;;;;;4931711;29;20776;-79
2021/10/05 01:12:30;;;;;;;18.03;6.40;;;;;;;;;;4933596;29;20238;-80
2021/10/05 01:14:58;;;;;;;12.10;5.37;;;;;;;;;;4934738;29;20243;-80
2021/10/05 01:17:25;;;;;;;10.93;5.97;;;;;;;;;;4934905;29;20203;-80
2021/10/05 01:19:52;;;;;;;9.90;6.03;;;;;;;;;;4931297;29;20780;-79
2021/10/05 01:22:21;;;;;;;11.83;6.30;;;;;;;;;;4934603;29;20239;-81
2021/10/05 01:24:48;;;;;;;9.20;5.57;;;;;;;;;;4936566;29;21704;-79
2021/10/05 01:27:16;;;;;;;11.50;6.10;;;;;;;;;;4929101;29;20262;-80
2021/10/05 01:29:43;;;;;;;10.20;6.13;;;;;;;;;;4942355;29;20231;-80
2021/10/05 01:32:10;;;;;;;14.77;5.87;;;;;;;;;;4945847;29;20235;-79
2021/10/05 01:34:37;;;;;;;14.50;5.77;;;;;;;;;;4933458;29;20294;-80
2021/10/05 01:37:05;;;;;;;12.10;6.07;;;;;;;;;;4935972;29;20281;-78
2021/10/05 01:39:34;;;;;;;13.10;5.67;;;;;;;;;;4933982;29;20674;-79
2021/10/05 01:42:02;;;;;;;8.13;5.40;;;;;;;;;;4935896;29;20274;-81
2021/10/05 01:44:29;;;;;;;9.73;5.60;;;;;;;;;;4933503;29;20207;-80
2021/10/05 01:46:57;;;;;;;10.50;5.87;;;;;;;;;;4934405;29;20246;-78
2021/10/05 01:49:24;;;;;;;11.30;5.50;;;;;;;;;;4933533;29;20309;-79
2021/10/05 01:51:52;;;;;;;10.70;6.23;;;;;;;;;;4933460;29;20221;-80
2021/10/05 01:54:20;;;;;;;9.97;6.07;;;;;;;;;;4933503;29;20593;-82
2021/10/05 01:56:49;;;;;;;12.80;5.63;;;;;;;;;;4933965;29;20257;-82
2021/10/05 01:59:17;;;;;;;11.40;6.10;;;;;;;;;;4933787;29;20235;-79
2021/10/05 02:01:44;;;;;;;9.87;6.13;;;;;;;;;;4932480;29;20241;-81
2021/10/05 02:04:11;;;;;;;10.00;6.37;;;;;;;;;;4933476;29;20203;-78
2021/10/05 02:06:39;;;;;;;11.23;6.00;;;;;;;;;;4933778;29;20290;-78
2021/10/05 02:09:06;;;;;;;11.30;6.00;;;;;;;;;;4931773;29;20318;-80
2021/10/05 02:11:34;;;;;;;10.13;5.93;;;;;;;;;;4934347;29;20298;-78
2021/10/05 02:14:03;;;;;;;13.20;6.07;;;;;;;;;;4932990;29;20290;-80
2021/10/05 02:16:30;;;;;;;10.40;5.90;;;;;;;;;;4932675;29;20211;-80
2021/10/05 02:18:57;;;;;;;12.57;6.30;;;;;;;;;;4933818;29;20202;-78
2021/10/05 02:21:25;;;;;;;12.47;5.93;;;;;;;;;;4933439;29;20254;-80
2021/10/05 02:26:37;;;;;;;12.20;6.10;;;;;;;;;;4933369;29;20206;-80
2021/10/05 02:29:06;;;;;;;9.57;6.00;;;;;;;;;;4932153;29;20290;-81
2021/10/05 02:31:33;;;;;;;11.37;6.40;;;;;;;;;;4931634;29;20234;-80
2021/10/05 02:34:00;;;;;;;12.53;5.97;;;;;;;;;;4931918;29;20211;-80
2021/10/05 02:36:27;;;;;;;12.07;7.10;;;;;;;;;;4933291;29;20213;-79
2021/10/05 02:38:55;;;;;;;10.67;6.07;;;;;;;;;;4936935;29;20230;-80
2021/10/05 02:41:22;;;;;;;10.20;6.73;;;;;;;;;;4944910;29;20259;-81
2021/10/05 02:43:49;;;;;;;11.43;6.30;;;;;;;;;;4934801;29;20227;-79
2021/10/05 02:46:18;;;;;;;11.23;6.27;;;;;;;;;;4935850;29;20238;-78
2021/10/05 02:48:45;;;;;;;14.20;7.97;;;;;;;;;;4934240;29;20322;-79
2021/10/05 02:51:12;;;;;;;14.07;7.73;;;;;;;;;;4936598;29;20305;-80
2021/10/05 02:53:39;;;;;;;11.93;7.80;;;;;;;;;;4934502;29;20242;-79
2021/10/05 02:56:07;;;;;;;13.83;7.40;;;;;;;;;;4932399;29;20743;-79
2021/10/05 02:58:34;;;;;;;16.27;8.63;;;;;;;;;;4934236;29;20282;-80
2021/10/05 03:01:01;;;;;;;15.00;9.93;;;;;;;;;;4934008;29;20257;-80
2021/10/05 03:03:30;;;;;;;17.70;9.67;;;;;;;;;;4931782;29;20234;-76
2021/10/05 03:05:57;;;;;;;20.83;9.27;;;;;;;;;;4926451;29;20290;-76
2021/10/05 03:08:29;;;;;;;18.83;9.53;;;;;;;;;;4929077;29;20222;-78
2021/10/05 03:10:56;;;;;;;19.57;10.73;;;;;;;;;;4930361;29;20600;-78
2021/10/05 03:13:23;;;;;;;24.93;11.57;;;;;;;;;;4931464;29;20198;-77
2021/10/05 03:15:51;;;;;;;21.60;11.97;;;;;;;;;;4930560;29;20294;-78
2021/10/05 03:18:19;;;;;;;25.77;12.80;;;;;;;;;;4931891;29;20286;-78
2021/10/05 03:20:47;;;;;;;22.60;12.17;;;;;;;;;;4930943;29;20223;-78
2021/10/05 03:23:14;;;;;;;20.37;11.40;;;;;;;;;;4929723;29;20781;-77
2021/10/05 03:25:41;;;;;;;22.70;12.10;;;;;;;;;;4933053;29;20266;-78
2021/10/05 03:28:09;;;;;;;23.13;12.27;;;;;;;;;;4933075;29;20230;-78
2021/10/05 03:30:36;;;;;;;24.83;12.50;;;;;;;;;;4926536;29;20715;-78
2021/10/05 03:33:03;;;;;;;25.03;12.70;;;;;;;;;;4929196;29;20656;-78
2021/10/05 03:35:31;;;;;;;25.67;13.33;;;;;;;;;;4933116;29;20245;-77
2021/10/05 03:38:01;;;;;;;26.67;13.00;;;;;;;;;;4932570;29;20307;-78
2021/10/05 03:40:28;;;;;;;26.93;13.03;;;;;;;;;;4933548;29;20238;-77
2021/10/05 03:42:55;;;;;;;26.53;13.50;;;;;;;;;;4927920;29;20326;-76
2021/10/05 03:45:22;;;;;;;24.80;12.83;;;;;;;;;;4929522;29;20933;-75
2021/10/05 03:47:50;;;;;;;26.90;12.90;;;;;;;;;;4930142;29;20246;-76
2021/10/05 03:50:18;;;;;;;24.27;12.50;;;;;;;;;;4928571;29;20239;-75
2021/10/05 03:52:46;;;;;;;26.83;13.03;;;;;;;;;;4931399;29;20225;-75
2021/10/05 03:55:14;;;;;;;27.83;13.63;;;;;;;;;;4929324;29;20682;-75
2021/10/05 03:57:41;;;;;;;33.97;14.43;;;;;;;;;;4930212;29;20235;-77
2021/10/05 04:00:09;;;;;;;31.40;12.97;;;;;;;;;;4928731;29;20313;-77
2021/10/05 04:02:36;;;;;;;33.70;13.23;;;;;;;;;;4927865;29;20262;-76
2021/10/05 04:05:04;;;;;;;35.07;13.23;;;;;;;;;;4927515;29;20301;-76
2021/10/05 04:07:31;;;;;;;31.27;13.33;;;;;;;;;;4920705;29;20761;-76
2021/10/05 04:09:58;;;;;;;33.50;13.13;;;;;;;;;;4926524;29;20254;-75
2021/10/05 04:12:27;;;;;;;29.50;12.37;;;;;;;;;;4923113;29;20286;-76
2021/10/05 04:14:54;;;;;;;31.80;12.67;;;;;;;;;;4928256;29;20604;-76
2021/10/05 04:17:21;;;;;;;35.33;13.07;;;;;;;;;;4924469;29;20346;-76
2021/10/05 04:19:48;;;;;;;34.50;13.90;;;;;;;;;;4920703;29;20231;-76
2021/10/05 04:22:16;;;;;;;32.27;13.97;;;;;;;;;;4915168;29;20217;-75
2021/10/05 04:24:43;;;;;;;39.20;13.60;;;;;;;;;;4914754;29;20213;-76
2021/10/05 04:27:10;;;;;;;38.07;14.63;;;;;;;;;;4918302;29;20219;-76
2021/10/05 04:29:40;;;;;;;37.50;13.73;;;;;;;;;;4917040;29;20400;-76
2021/10/05 04:32:08;;;;;;;29.23;12.67;;;;;;;;;;4913296;29;20298;-76
2021/10/05 04:34:35;;;;;;;32.23;13.27;;;;;;;;;;4922507;29;20634;-76
2021/10/05 04:37:03;;;;;;;36.80;14.83;;;;;;;;;;4920207;29;20297;-75
2021/10/05 04:39:30;;;;;;;42.57;16.93;;;;;;;;;;4919624;29;20223;-77
2021/10/05 04:41:57;;;;;;;45.90;16.27;;;;;;;;;;4928402;29;21191;-77
2021/10/05 04:44:24;;;;;;;44.63;17.00;;;;;;;;;;4930253;29;20210;-77
2021/10/05 04:46:53;;;;;;;47.67;17.03;;;;;;;;;;4923795;29;20271;-78
2021/10/05 04:49:20;;;;;;;45.63;17.13;;;;;;;;;;4920220;29;20245;-77
2021/10/05 04:51:51;;;;;;;41.70;16.30;;;;;;;;;;4921704;29;20334;-78
2021/10/05 04:54:19;;;;;;;38.00;15.83;;;;;;;;;;4926212;29;20207;-78
2021/10/05 04:56:46;;;;;;;38.77;15.90;;;;;;;;;;4925382;29;20298;-78
2021/10/05 04:59:14;;;;;;;43.80;16.53;;;;;;;;;;4923437;29;20207;-77
2021/10/05 05:01:41;;;;;;;47.67;16.70;;;;;;;;;;4928884;29;20207;-77
2021/10/05 05:04:10;;;;;;;38.03;15.03;;;;;;;;;;4929483;29;20234;-78
2021/10/05 05:06:37;;;;;;;39.63;15.73;;;;;;;;;;4926411;29;20210;-79
2021/10/05 05:09:05;;;;;;;39.07;15.67;;;;;;;;;;4917117;29;20243;-77
2021/10/05 05:11:32;;;;;;;36.83;15.20;;;;;;;;;;4919929;29;20580;-77
2021/10/05 05:14:04;;;;;;;36.20;15.93;;;;;;;;;;4929230;29;20250;-77
2021/10/05 05:16:32;;;;;;;39.20;15.23;;;;;;;;;;4927223;29;20218;-77
2021/10/05 05:18:59;;;;;;;41.90;16.90;;;;;;;;;;4925560;29;20330;-81
2021/10/05 05:21:27;;;;;;;44.80;18.03;;;;;;;;;;4924292;29;20211;-79
2021/10/05 05:23:54;;;;;;;39.90;15.13;;;;;;;;;;4922359;29;20203;-78
2021/10/05 05:26:22;;;;;;;31.37;13.23;;;;;;;;;;4926826;29;20310;-78
2021/10/05 05:28:49;;;;;;;29.90;12.73;;;;;;;;;;4930416;29;20333;-77
2021/10/05 05:31:16;;;;;;;41.57;17.13;;;;;;;;;;4931124;29;20318;-78
2021/10/05 05:33:44;;;;;;;35.83;14.43;;;;;;;;;;4927486;29;20235;-77
2021/10/05 05:36:11;;;;;;;39.30;14.90;;;;;;;;;;4921187;29;20301;-78
2021/10/05 05:38:40;;;;;;;39.37;16.57;;;;;;;;;;4922324;29;20290;-77
2021/10/05 05:41:07;;;;;;;36.27;16.57;;;;;;;;;;4924802;29;20936;-76
2021/10/05 05:43:38;;;;;;;36.03;16.10;;;;;;;;;;4927987;29;20688;-76
2021/10/05 05:46:09;;;;;;;40.87;15.23;;;;;;;;;;4932494;29;20211;-76
2021/10/05 05:48:40;;;;;;;43.80;19.43;;;;;;;;;;4930032;29;20234;-76
2021/10/05 05:51:07;;;;;;;46.73;19.63;;;;;;;;;;4931908;29;20231;-76
2021/10/05 05:53:34;;;;;;;39.67;15.97;;;;;;;;;;4931379;29;20250;-75
2021/10/05 05:56:03;;;;;;;44.67;17.90;;;;;;;;;;4931983;29;20317;-76
2021/10/05 05:58:30;;;;;;;42.37;17.13;;;;;;;;;;4931607;29;20243;-75
2021/10/05 06:00:58;;;;;;;44.23;17.13;;;;;;;;;;4931766;29;20322;-76
2021/10/05 06:03:25;;;;;;;46.97;18.20;;;;;;;;;;4929858;29;20658;-76
2021/10/05 06:05:52;;;;;;;43.00;17.73;;;;;;;;;;4931276;29;20321;-76
2021/10/05 06:08:20;;;;;;;45.67;17.33;;;;;;;;;;4930563;29;20289;-76
2021/10/05 06:10:47;;;;;;;43.30;16.43;;;;;;;;;;4932020;29;20227;-77
2021/10/05 06:13:15;;;;;;;38.77;16.47;;;;;;;;;;4930894;29;20309;-76
2021/10/05 06:15:42;;;;;;;40.70;16.43;;;;;;;;;;4931594;29;20290;-76
2021/10/05 06:18:10;;;;;;;47.23;16.67;;;;;;;;;;4929766;29;20350;-76
2021/10/05 06:20:37;;;;;;;44.33;17.30;;;;;;;;;;4931706;29;20223;-77
2021/10/05 06:23:04;;;;;;;43.17;16.40;;;;;;;;;;4929300;29;20230;-76
2021/10/05 06:25:32;;;;;;;42.13;16.70;;;;;;;;;;4932178;29;20302;-77
2021/10/05 06:28:00;;;;;;;34.20;13.87;;;;;;;;;;4931030;29;20211;-77
2021/10/05 06:30:29;;;;;;;41.43;16.57;;;;;;;;;;4931802;29;20243;-76
2021/10/05 06:32:57;;;;;;;44.40;15.97;;;;;;;;;;4928123;29;20207;-77
2021/10/05 06:35:26;;;;;;;33.97;14.93;;;;;;;;;;4931567;29;20249;-77
2021/10/05 06:37:54;;;;;;;38.83;15.20;;;;;;;;;;4930282;29;20215;-77
2021/10/05 06:40:22;;;;;;;38.93;16.20;;;;;;;;;;4930513;29;20231;-77
2021/10/05 06:42:50;;;;;;;27.37;12.23;;;;;;;;;;4917965;29;20215;-77
2021/10/05 06:45:17;;;;;;;31.53;13.50;;;;;;;;;;4924923;29;20203;-77
2021/10/05 06:47:46;;;;;;;32.37;13.00;;;;;;;;;;4928759;29;20213;-77
2021/10/05 06:50:13;;;;;;;34.50;14.17;;;;;;;;;;4926335;29;20289;-76
2021/10/05 06:52:40;;;;;;;34.97;15.47;;;;;;;;;;4929033;29;20203;-76
2021/10/05 06:55:08;;;;;;;32.23;14.30;;;;;;;;;;4928543;29;20306;-76
2021/10/05 06:57:35;;;;;;;32.33;13.27;;;;;;;;;;4926104;29;20229;-77
2021/10/05 07:00:03;;;;;;;27.17;12.80;;;;;;;;;;4928146;29;20236;-76
2021/10/05 07:02:30;;;;;;;24.90;12.10;;;;;;;;;;4930581;29;20695;-78
2021/10/05 07:04:58;;;;;;;25.07;11.93;;;;;;;;;;4931391;29;20297;-77
2021/10/05 07:07:26;;;;;;;24.00;11.17;;;;;;;;;;4931137;29;20302;-78
2021/10/05 07:09:53;;;;;;;26.50;10.90;;;;;;;;;;4929842;29;20637;-77
2021/10/05 07:12:20;;;;;;;25.83;11.90;;;;;;;;;;4931178;29;20298;-77
2021/10/05 07:14:47;;;;;;;27.57;12.53;;;;;;;;;;4931261;29;20214;-77
2021/10/05 07:17:14;;;;;;;20.50;10.00;;;;;;;;;;4932064;29;20246;-78
2021/10/05 07:19:42;;;;;;;27.63;10.73;;;;;;;;;;4936777;29;20261;-77
2021/10/05 07:22:10;;;;;;;25.50;11.50;;;;;;;;;;4934539;29;20303;-76
2021/10/05 07:24:37;;;;;;;25.90;11.00;;;;;;;;;;4930725;29;20221;-77
2021/10/05 07:27:05;;;;;;;22.80;10.87;;;;;;;;;;4929684;29;20653;-77
2021/10/05 07:29:32;;;;;;;23.07;11.00;;;;;;;;;;4930725;29;20326;-77
2021/10/05 07:32:00;;;;;;;21.60;9.90;;;;;;;;;;4928444;29;20246;-77
2021/10/05 07:42:45;;;;;;;20.37;9.57;;;;;;;;;;5381118;23;20293;-77
2021/10/05 07:45:12;;;;;;;18.67;9.70;;;;;;;;;;4924872;29;21252;-76
2021/10/05 07:47:39;;;;;;;18.40;9.67;;;;;;;;;;4924564;29;20314;-76
2021/10/05 07:50:07;;;;;;;16.23;8.33;;;;;;;;;;4922777;29;20655;-78
2021/10/05 07:52:34;;;;;;;17.90;9.53;;;;;;;;;;4920144;29;20210;-81
2021/10/05 07:55:01;;;;;;;15.30;7.97;;;;;;;;;;4920941;29;20207;-78
2021/10/05 07:57:28;;;;;;;14.30;8.20;;;;;;;;;;4918055;29;20203;-79
2021/10/05 07:59:57;;;;;;;14.07;8.03;;;;;;;;;;4921799;29;20302;-79
2021/10/05 08:02:24;;;;;;;14.73;8.37;;;;;;;;;;4920908;29;20226;-81
2021/10/05 08:04:53;;;;;;;14.23;8.30;;;;;;;;;;4927110;29;20234;-81
2021/10/05 08:07:20;;;;;;;13.87;8.03;;;;;;;;;;4926381;29;20565;-82
2021/10/05 08:09:48;;;;;;;12.77;7.50;;;;;;;;;;4931553;29;20247;-79
2021/10/05 08:12:15;;;;;;;17.47;8.17;;;;;;;;;;4929897;29;20627;-80
2021/10/05 08:14:42;;;;;;;13.47;7.30;;;;;;;;;;4922921;29;20205;-76
2021/10/05 08:17:11;;;;;;;10.90;6.33;;;;;;;;;;4915801;29;20216;-75
2021/10/05 08:19:38;;;;;;;10.10;6.10;;;;;;;;;;4957196;23;20235;-76
2021/10/05 08:22:06;;;;;;;11.03;7.03;;;;;;;;;;4922466;28;20566;-76
2021/10/05 08:24:35;;;;;;;9.50;5.67;;;;;;;;;;4929432;29;20265;-76
2021/10/05 08:27:04;;;;;;;9.63;5.93;;;;;;;;;;4930208;29;20210;-76
2021/10/05 08:29:31;;;;;;;9.90;6.30;;;;;;;;;;4930781;29;20230;-78
2021/10/05 08:31:58;;;;;;;8.97;5.90;;;;;;;;;;4922743;29;20294;-75
2021/10/05 08:34:27;;;;;;;7.93;5.13;;;;;;;;;;4925055;29;20302;-76
2021/10/05 08:36:54;;;;;;;10.73;5.90;;;;;;;;;;4925282;29;20303;-83
2021/10/05 08:39:21;;;;;;;8.50;5.47;;;;;;;;;;4924661;29;20223;-79
2021/10/05 08:41:49;;;;;;;8.17;5.43;;;;;;;;;;4920165;29;20286;-79
2021/10/05 08:44:17;;;;;;;7.10;5.10;;;;;;;;;;4928204;29;20294;-78
2021/10/05 08:46:45;;;;;;;6.50;4.57;;;;;;;;;;4930107;29;20262;-78
2021/10/05 08:49:12;;;;;;;11.53;6.27;;;;;;;;;;4930598;29;20203;-81
2021/10/05 08:51:41;;;;;;;9.97;6.43;;;;;;;;;;4929466;29;20247;-78
2021/10/05 08:54:10;;;;;;;10.93;6.47;;;;;;;;;;4929905;29;20250;-80
2021/10/05 08:56:38;;;;;;;10.73;5.90;;;;;;;;;;4933738;29;20218;-80
2021/10/05 08:59:05;;;;;;;11.00;6.93;;;;;;;;;;4933734;29;20238;-78
2021/10/05 09:01:33;;;;;;;12.37;7.50;;;;;;;;;;4931260;29;20293;-79
2021/10/05 09:04:00;;;;;;;10.47;6.47;;;;;;;;;;4933026;29;20207;-80
2021/10/05 09:06:27;;;;;;;11.50;7.03;;;;;;;;;;4928592;29;20749;-79
2021/10/05 09:08:56;;;;;;;11.00;7.07;;;;;;;;;;4933609;29;20651;-87
2021/10/05 09:11:24;;;;;;;11.67;7.37;;;;;;;;;;4939178;29;20273;-78
2021/10/05 09:13:53;;;;;;;11.63;7.87;;;;;;;;;;4930365;29;20230;-79
2021/10/05 09:16:21;;;;;;;11.17;7.47;;;;;;;;;;4932800;29;20293;-79
2021/10/05 09:18:55;;;;;;;13.93;7.17;;;;;;;;;;4927162;29;20286;-81
2021/10/05 09:21:22;;;;;;;12.90;7.30;;;;;;;;;;4930225;29;20239;-79
2021/10/05 09:23:58;;;;;;;11.67;7.40;;;;;;;;;;4930916;29;20327;-78
2021/10/05 09:26:36;;;;;;;10.80;6.57;;;;;;;;;;4932451;29;20301;-81
2021/10/05 09:29:13;;;;;;;12.13;7.57;;;;;;;;;;4932259;29;20297;-79
2021/10/05 09:32:02;;;;;;;10.70;7.13;;;;;;;;;;4931374;29;20227;-80
2021/10/05 09:34:37;;;;;;;7.57;5.50;;;;;;;;;;4926107;29;20347;-80
2021/10/05 09:37:05;;;;;;;13.27;7.23;;;;;;;;;;4929522;29;20210;-79
2021/10/05 09:39:38;;;;;;;14.83;7.70;;;;;;;;;;4931708;29;20259;-77
2021/10/05 09:42:05;;;;;;;10.33;6.87;;;;;;;;;;4930661;29;20265;-79
2021/10/05 09:44:32;;;;;;;9.27;6.27;;;;;;;;;;4931483;29;20299;-77
2021/10/05 09:47:00;;;;;;;8.10;5.47;;;;;;;;;;4929543;29;20241;-79
2021/10/05 09:49:27;;;;;;;8.17;5.60;;;;;;;;;;4931115;29;20363;-78
2021/10/05 09:51:58;;;;;;;9.17;6.10;;;;;;;;;;4929860;29;20209;-78
2021/10/05 09:54:26;;;;;;;8.60;5.53;;;;;;;;;;4931528;29;20298;-79
2021/10/05 09:56:55;;;;;;;6.90;4.97;;;;;;;;;;4929301;29;20489;-78
2021/10/05 09:59:22;;;;;;;9.13;5.07;;;;;;;;;;4929869;29;20262;-78
2021/10/05 10:01:50;;;;;;;9.27;6.07;;;;;;;;;;4930926;29;20234;-80
2021/10/05 10:04:17;;;;;;;7.30;5.13;;;;;;;;;;4933625;29;20213;-77
2021/10/05 10:06:46;;;;;;;8.83;5.70;;;;;;;;;;4930280;29;20210;-77
2021/10/05 10:09:13;;;;;;;7.63;5.40;;;;;;;;;;4932596;29;20241;-77
2021/10/05 10:11:41;;;;;;;5.20;3.70;;;;;;;;;;4929412;29;20226;-78
2021/10/05 10:14:09;;;;;;;8.43;5.70;;;;;;;;;;4929818;29;20404;-79
2021/10/05 10:16:37;;;;;;;7.10;4.77;;;;;;;;;;4931118;29;20641;-78
2021/10/05 10:19:04;;;;;;;7.80;5.80;;;;;;;;;;4930855;29;20801;-78
2021/10/05 10:21:33;;;;;;;6.70;4.83;;;;;;;;;;4929840;29;20305;-78
2021/10/05 10:24:10;;;;;;;6.93;4.90;;;;;;;;;;4932140;29;20267;-78
2021/10/05 10:26:41;;;;;;;8.33;5.10;;;;;;;;;;4931719;29;20219;-79
2021/10/05 10:29:11;;;;;;;6.70;5.03;;;;;;;;;;4927848;29;20294;-80
2021/10/05 10:31:39;;;;;;;5.10;4.00;;;;;;;;;;4929768;29;20227;-77
2021/10/05 10:34:07;;;;;;;6.33;4.40;;;;;;;;;;4931211;29;20286;-77
2021/10/05 10:36:36;;;;;;;6.07;4.07;;;;;;;;;;4929034;29;20310;-79
2021/10/05 10:41:31;;;;;;;4.90;3.87;;;;;;;;;;5293179;23;20273;-79
2021/10/05 10:44:02;;;;;;;4.70;3.53;;;;;;;;;;4930737;29;20457;-78
2021/10/05 10:46:32;;;;;;;3.80;2.87;;;;;;;;;;4930712;29;20226;-78
2021/10/05 10:49:00;;;;;;;6.30;3.20;;;;;;;;;;4931898;29;20773;-77
2021/10/05 10:51:28;;;;;;;4.83;3.57;;;;;;;;;;4907632;29;20970;-80
2021/10/05 10:53:56;;;;;;;3.57;3.00;;;;;;;;;;4904331;29;20217;-77
2021/10/05 10:56:30;;;;;;;3.83;3.00;;;;;;;;;;4910057;29;20306;-79
2021/10/05 10:59:00;;;;;;;4.97;3.20;;;;;;;;;;4907149;29;20319;-78
2021/10/05 11:01:37;;;;;;;5.63;2.70;;;;;;;;;;4906914;29;20215;-78
2021/10/05 11:04:04;;;;;;;3.87;2.87;;;;;;;;;;4907361;29;20208;-77
2021/10/05 11:06:32;;;;;;;4.27;2.80;;;;;;;;;;4907383;29;20290;-78
2021/10/05 11:08:59;;;;;;;4.03;2.80;;;;;;;;;;4910653;29;20247;-78
2021/10/05 11:11:30;;;;;;;2.80;2.20;;;;;;;;;;4910192;29;20336;-81
2021/10/05 11:14:01;;;;;;;3.03;2.37;;;;;;;;;;4905932;29;20258;-78
2021/10/05 11:16:28;;;;;;;2.97;2.43;;;;;;;;;;4907406;29;20588;-78
2021/10/05 11:19:04;;;;;;;5.97;2.60;;;;;;;;;;4904819;29;20204;-81
2021/10/05 11:21:32;;;;;;;5.03;2.70;;;;;;;;;;4905416;29;20302;-79
2021/10/05 11:23:59;;;;;;;3.60;2.37;;;;;;;;;;4908211;29;20741;-78
2021/10/05 11:26:31;;;;;;;2.70;2.30;;;;;;;;;;4907664;29;20302;-78
2021/10/05 11:29:01;;;;;;;2.57;2.03;;;;;;;;;;4904849;29;20243;-79
2021/10/05 11:31:28;;;;;;;2.00;1.80;;;;;;;;;;4907434;29;20238;-77
2021/10/05 11:34:05;;;;;;;4.13;2.00;;;;;;;;;;4901473;29;20287;-77
2021/10/05 11:36:33;;;;;;;1.70;1.60;;;;;;;;;;4902214;29;20331;-77
2021/10/05 11:39:00;;;;;;;1.77;1.50;;;;;;;;;;4904460;29;20204;-77
2021/10/05 11:41:36;;;;;;;2.80;1.87;;;;;;;;;;4903633;29;20853;-79
2021/10/05 11:44:12;;;;;;;2.23;1.87;;;;;;;;;;4908525;29;20294;-78
2021/10/05 11:46:40;;;;;;;3.80;1.70;;;;;;;;;;4906561;29;20681;-78
2021/10/05 11:49:18;;;;;;;3.57;1.70;;;;;;;;;;4907416;29;20220;-78
2021/10/05 11:51:46;;;;;;;3.30;1.70;;;;;;;;;;4907175;29;20616;-78
2021/10/05 11:54:18;;;;;;;1.80;1.50;;;;;;;;;;4905536;29;20239;-81
2021/10/05 11:56:46;;;;;;;2.20;1.50;;;;;;;;;;4904478;29;20215;-78
2021/10/05 11:59:22;;;;;;;1.87;1.57;;;;;;;;;;4909188;29;20236;-78
2021/10/05 12:01:50;;;;;;;1.90;1.50;;;;;;;;;;4904778;29;20206;-78
2021/10/05 12:04:18;;;;;;;2.30;1.50;;;;;;;;;;4905908;29;20316;-78
2021/10/05 12:06:51;;;;;;;3.97;1.40;;;;;;;;;;4913234;29;20303;-78
2021/10/05 12:09:24;;;;;;;1.80;1.43;;;;;;;;;;4905648;29;20664;-78
2021/10/05 12:11:51;;;;;;;5.17;1.30;;;;;;;;;;4904208;29;20231;-79
2021/10/05 12:14:21;;;;;;;1.67;1.50;;;;;;;;;;4903132;29;20279;-79
2021/10/05 12:16:56;;;;;;;1.83;1.30;;;;;;;;;;4902052;29;20690;-79
2021/10/05 12:19:26;;;;;;;1.27;1.10;;;;;;;;;;4907458;29;20239;-78
2021/10/05 12:21:54;;;;;;;1.80;1.30;;;;;;;;;;4904992;29;20268;-78
2021/10/05 12:24:21;;;;;;;2.17;1.40;;;;;;;;;;4905042;29;20216;-78
2021/10/05 12:26:49;;;;;;;1.43;0.97;;;;;;;;;;4904143;29;20214;-79
2021/10/05 12:29:17;;;;;;;1.40;1.20;;;;;;;;;;4906394;29;20334;-78
2021/10/05 12:31:53;;;;;;;2.40;1.10;;;;;;;;;;4908895;29;20655;-79
2021/10/05 12:34:20;;;;;;;2.23;1.30;;;;;;;;;;4910217;29;20502;-79
2021/10/05 12:36:50;;;;;;;1.47;0.93;;;;;;;;;;4906778;29;20300;-79
2021/10/05 12:39:19;;;;;;;1.50;1.03;;;;;;;;;;4908614;29;20499;-78
2021/10/05 12:41:56;;;;;;;3.07;1.10;;;;;;;;;;4909932;29;20483;-79
2021/10/05 12:44:23;;;;;;;1.20;1.00;;;;;;;;;;4911574;29;20298;-79
2021/10/05 12:46:54;;;;;;;1.67;1.20;;;;;;;;;;4909912;29;20515;-78
2021/10/05 12:49:21;;;;;;;3.27;1.10;;;;;;;;;;4911914;29;20694;-78
2021/10/05 12:51:50;;;;;;;3.50;1.13;;;;;;;;;;4910406;29;20314;-79
2021/10/05 12:54:18;;;;;;;2.60;1.20;;;;;;;;;;4911386;29;20242;-78
2021/10/05 12:56:45;;;;;;;2.00;1.23;;;;;;;;;;4911404;29;20247;-78
2021/10/05 12:59:13;;;;;;;2.17;1.10;;;;;;;;;;4909158;29;20239;-79
2021/10/05 13:01:41;;;;;;;3.13;1.70;;;;;;;;;;4908051;29;20327;-78
2021/10/05 13:04:09;;;;;;;3.10;1.00;;;;;;;;;;4909202;29;20310;-78
2021/10/05 13:06:37;;;;;;;2.00;1.20;;;;;;;;;;4911270;29;20217;-79
2021/10/05 13:09:06;;;;;;;3.33;1.90;;;;;;;;;;4909128;29;20239;-79
2021/10/05 13:11:34;;;;;;;4.47;2.47;;;;;;;;;;4909400;29;20647;-78
2021/10/05 13:14:01;;;;;;;1.73;1.17;;;;;;;;;;4909627;29;20287;-78
2021/10/05 13:16:32;;;;;;;2.33;1.40;;;;;;;;;;4903279;29;20633;-78
2021/10/05 13:18:59;;;;;;;4.17;1.80;;;;;;;;;;4910823;29;20212;-79
2021/10/05 13:21:27;;;;;;;4.13;1.43;;;;;;;;;;4908830;29;20719;-84
2021/10/05 13:23:54;;;;;;;3.20;1.20;;;;;;;;;;4918436;29;20631;-81
2021/10/05 13:26:23;;;;;;;1.73;1.10;;;;;;;;;;4913395;29;20231;-76
2021/10/05 13:28:50;;;;;;;2.20;0.80;;;;;;;;;;4906002;29;20276;-80
2021/10/05 13:31:17;;;;;;;4.43;2.20;;;;;;;;;;4904777;29;20238;-78
2021/10/05 13:36:48;;;;;;;4.87;1.10;;;;;;;;;;4910560;29;20563;-80
2021/10/05 13:39:15;;;;;;;2.73;1.07;;;;;;;;;;4918537;29;20411;-79
2021/10/05 13:41:44;;;;;;;2.90;0.90;;;;;;;;;;4914967;29;20248;-79
2021/10/05 13:44:11;;;;;;;4.00;1.57;;;;;;;;;;4910561;29;20251;-78
2021/10/05 13:46:38;;;;;;;1.83;0.80;;;;;;;;;;4914874;29;20215;-79
2021/10/05 13:49:05;;;;;;;2.03;0.80;;;;;;;;;;4915764;29;20204;-78
2021/10/05 13:51:33;;;;;;;2.50;0.80;;;;;;;;;;4919294;29;20306;-78
2021/10/05 13:54:00;;;;;;;3.53;0.90;;;;;;;;;;4915636;29;21154;-79
2021/10/05 13:56:27;;;;;;;2.90;0.90;;;;;;;;;;4913447;29;20252;-78
2021/10/05 13:58:57;;;;;;;2.70;0.83;;;;;;;;;;4914703;29;20678;-80
2021/10/05 14:01:25;;;;;;;2.13;1.00;;;;;;;;;;4917341;29;20685;-78
2021/10/05 14:03:52;;;;;;;4.70;1.40;;;;;;;;;;4912251;29;20242;-78
2021/10/05 14:06:19;;;;;;;4.33;2.70;;;;;;;;;;4910441;29;20252;-79
2021/10/05 14:08:46;;;;;;;6.10;1.53;;;;;;;;;;4911051;29;20292;-79
2021/10/05 14:11:14;;;;;;;2.87;0.90;;;;;;;;;;4913095;29;20646;-79
2021/10/05 14:13:41;;;;;;;6.77;3.27;;;;;;;;;;4903561;29;20275;-78
2021/10/05 14:16:09;;;;;;;3.30;1.60;;;;;;;;;;4911627;29;20290;-79
2021/10/05 14:18:37;;;;;;;2.60;1.00;;;;;;;;;;4916157;29;20243;-79
2021/10/05 14:21:05;;;;;;;2.60;0.97;;;;;;;;;;4913118;29;20259;-79
2021/10/05 14:23:32;;;;;;;1.60;0.97;;;;;;;;;;4905986;29;20209;-78
2021/10/05 14:26:00;;;;;;;3.97;1.23;;;;;;;;;;4906833;29;20584;-79
2021/10/05 14:28:27;;;;;;;1.23;0.83;;;;;;;;;;4908832;29;20208;-80
2021/10/05 14:30:54;;;;;;;4.67;0.97;;;;;;;;;;4912553;29;20274;-77
2021/10/05 14:33:22;;;;;;;1.60;1.00;;;;;;;;;;4920811;29;20203;-78
2021/10/05 14:35:50;;;;;;;2.77;1.00;;;;;;;;;;4912358;29;20298;-79
2021/10/05 14:38:17;;;;;;;1.63;0.80;;;;;;;;;;4904672;29;20208;-79
2021/10/05 14:40:44;;;;;;;1.83;0.90;;;;;;;;;;4908354;29;20341;-79
2021/10/05 14:43:11;;;;;;;2.03;1.10;;;;;;;;;;4905167;29;20675;-80
2021/10/05 14:45:38;;;;;;;1.97;0.90;;;;;;;;;;4906259;29;20314;-78
2021/10/05 14:48:07;;;;;;;1.50;0.80;;;;;;;;;;4908083;29;20246;-80
2021/10/05 14:50:37;;;;;;;1.90;0.93;;;;;;;;;;4906051;29;20227;-78
2021/10/05 14:53:04;;;;;;;1.20;1.00;;;;;;;;;;4906601;29;20239;-80